Terminal Aerodrome Forecast
Issued by NWS

Home | Current Version | Previous Version | Text Only | Print | Product List | Glossary On
Versions: 1 2 3 4 5 6 7 8 9 10 11 12 13
371
FTUS43 KMQT 241120
TAFSAW
TAF
KSAW 241120Z 2412/2512 10006KT P6SM BKN110
     FM241600 14011G18KT P6SM BKN130
     FM241800 16014G23KT P6SM BKN150
     FM242300 15013KT P6SM BKN150
     FM250100 15009KT P6SM BKN200 WS020/18035KT
     FM250300 16005KT P6SM BKN200 WS020/18040KT=

USA.gov is the U.S. government's official web portal to all federal, state and local government web resources and services.